Time;durP1;ratioP1;P1;durP2;ratioP2;P2;SDS_P1;SDS_P2;PMS_P1;PMS_P2;Temp;Humidity;BMP_temperature;BMP_pressure;BME280_temperature;BME280_humidity;BME280_pressure;Samples;Min_cycle;Max_cycle;Signal;HPM_P1;HPM_P2
2023/08/14 00:00:14;;;;;;;;;;;;;;;17.09;90.68;101541.06;5047503;28;1126;-74
2023/08/14 00:02:39;;;;;;;;;;;;;;;17.06;90.46;101536.13;5045478;28;1125;-73
2023/08/14 00:05:05;;;;;;;;;;;;;;;17.02;90.61;101534.75;5030059;28;1308;-72
2023/08/14 00:07:30;;;;;;;;;;;;;;;16.97;90.88;101538.69;5023977;28;1181;-73
2023/08/14 00:09:55;;;;;;;;;;;;;;;16.95;90.83;101540.59;5044613;28;1967;-74
2023/08/14 00:12:20;;;;;;;;;;;;;;;16.91;91.03;101528.75;5040425;28;1056;-72
2023/08/14 00:14:45;;;;;;;;;;;;;;;16.89;91.15;101535.97;5038868;28;1075;-72
2023/08/14 00:17:11;;;;;;;;;;;;;;;16.89;91.15;101543.00;5039968;28;1233;-72
2023/08/14 00:19:36;;;;;;;;;;;;;;;16.88;90.97;101534.31;5036114;28;1138;-72
2023/08/14 00:22:01;;;;;;;;;;;;;;;16.88;91.09;101539.56;5035812;28;1254;-75
2023/08/14 00:24:26;;;;;;;;;;;;;;;16.86;91.07;101531.03;5050572;28;994;-72
2023/08/14 00:26:51;;;;;;;;;;;;;;;16.85;90.83;101518.88;5048576;28;928;-73
2023/08/14 00:29:17;;;;;;;;;;;;;;;16.81;91.02;101517.56;5048829;28;1906;-72
2023/08/14 00:31:42;;;;;;;;;;;;;;;16.71;91.41;101519.41;5047089;28;1143;-73
2023/08/14 00:34:07;;;;;;;;;;;;;;;16.60;91.93;101519.59;5063340;28;1087;-73
2023/08/14 00:36:32;;;;;;;;;;;;;;;16.57;92.00;101509.41;5065158;28;1072;-72
2023/08/14 00:38:58;;;;;;;;;;;;;;;16.58;91.81;101511.06;5064480;28;1143;-73
2023/08/14 00:41:23;;;;;;;;;;;;;;;16.59;91.79;101517.94;5063712;28;1067;-72
2023/08/14 00:43:48;;;;;;;;;;;;;;;16.61;91.86;101510.75;5064874;28;1095;-75
2023/08/14 00:46:14;;;;;;;;;;;;;;;16.63;91.76;101519.28;5062393;28;1080;-73
2023/08/14 00:48:40;;;;;;;;;;;;;;;16.65;91.79;101517.34;5063008;28;2145;-73
2023/08/14 00:51:05;;;;;;;;;;;;;;;16.65;91.95;101512.13;5064169;28;1084;-73
2023/08/14 00:53:30;;;;;;;;;;;;;;;16.65;92.00;101523.41;5061638;28;1152;-72
2023/08/14 00:55:57;;;;;;;;;;;;;;;16.67;91.96;101510.16;5043724;28;1317;-72
2023/08/14 00:58:23;;;;;;;;;;;;;;;16.65;91.59;101512.94;5039912;28;1519;-72
2023/08/14 01:00:48;;;;;;;;;;;;;;;16.65;91.93;101509.50;5061114;28;1097;-72
2023/08/14 01:03:13;;;;;;;;;;;;;;;16.61;92.16;101501.09;5042181;28;1504;-73
2023/08/14 01:05:39;;;;;;;;;;;;;;;16.61;92.03;101495.88;5039978;28;1343;-72
2023/08/14 01:08:04;;;;;;;;;;;;;;;16.60;92.08;101494.22;5061337;28;1898;-72
2023/08/14 01:10:39;;;;;;;;;;;;;;;16.60;91.78;101490.78;5042172;28;1278;-72
2023/08/14 01:13:16;;;;;;;;;;;;;;;16.57;91.89;101494.50;5044669;28;1596;-72
2023/08/14 01:15:44;;;;;;;;;;;;;;;16.53;91.72;101501.03;5054801;28;1068;-73
2023/08/14 01:18:10;;;;;;;;;;;;;;;16.51;91.97;101500.34;5059382;28;1082;-72
2023/08/14 01:20:37;;;;;;;;;;;;;;;16.50;92.10;101498.69;5057134;28;1125;-74
2023/08/14 01:23:10;;;;;;;;;;;;;;;16.50;91.81;101492.63;5056232;28;1129;-74
2023/08/14 01:25:37;;;;;;;;;;;;;;;16.50;91.81;101497.88;5048327;28;1063;-74
2023/08/14 01:28:03;;;;;;;;;;;;;;;16.50;92.26;101500.50;5052745;28;1906;-73
2023/08/14 01:30:28;;;;;;;;;;;;;;;16.49;92.11;101494.44;5053190;28;1079;-73
2023/08/14 01:32:54;;;;;;;;;;;;;;;16.49;92.37;101493.59;5051575;28;1015;-72
2023/08/14 01:35:23;;;;;;;;;;;;;;;16.48;92.47;101494.59;5051135;28;1070;-73
2023/08/14 01:37:56;;;;;;;;;;;;;;;16.47;92.39;101493.75;5050542;28;1093;-73
2023/08/14 01:40:41;;;;;;;;;;;;;;;16.45;92.49;101496.50;5068393;28;1099;-75
2023/08/14 01:43:21;;;;;;;;;;;;;;;16.45;92.25;101483.41;5052081;28;1399;-73
2023/08/14 01:45:47;;;;;;;;;;;;;;;16.46;92.51;101486.88;5038771;28;1446;-73
2023/08/14 01:48:14;;;;;;;;;;;;;;;16.46;92.61;101487.72;5069347;28;1931;-72
2023/08/14 01:50:39;;;;;;;;;;;;;;;16.45;92.54;101486.03;5068627;28;1256;-73
2023/08/14 01:53:06;;;;;;;;;;;;;;;16.45;92.60;101475.56;5069076;28;1134;-72
2023/08/14 01:55:31;;;;;;;;;;;;;;;16.45;92.58;101483.41;5046695;28;1380;-72
2023/08/14 01:57:56;;;;;;;;;;;;;;;16.45;92.44;101475.56;5066661;28;973;-72
2023/08/14 02:00:22;;;;;;;;;;;;;;;16.44;92.68;101460.81;5063166;28;1165;-74
2023/08/14 02:02:47;;;;;;;;;;;;;;;16.44;92.79;101455.59;5046117;28;1400;-72
2023/08/14 02:05:12;;;;;;;;;;;;;;;16.44;92.84;101452.97;5063712;28;1068;-72
2023/08/14 02:07:37;;;;;;;;;;;;;;;16.43;92.86;101453.13;5059839;28;1075;-71
2023/08/14 02:10:03;;;;;;;;;;;;;;;16.41;92.94;101453.28;5063039;28;1950;-72
2023/08/14 02:12:30;;;;;;;;;;;;;;;16.37;92.73;101446.69;5041455;28;1402;-73
2023/08/14 02:14:55;;;;;;;;;;;;;;;16.34;92.74;101457.44;5058795;28;1137;-73
2023/08/14 02:17:21;;;;;;;;;;;;;;;16.30;93.11;101439.59;5058119;28;972;-74
2023/08/14 02:19:46;;;;;;;;;;;;;;;16.24;93.21;101441.00;5038511;28;1292;-72
2023/08/14 02:22:12;;;;;;;;;;;;;;;16.19;93.08;101433.56;5058440;28;1086;-72
2023/08/14 02:24:37;;;;;;;;;;;;;;;16.15;93.65;101431.38;5054479;28;983;-72
2023/08/14 02:27:02;;;;;;;;;;;;;;;16.12;93.38;101442.16;5053985;28;1074;-72
2023/08/14 02:29:27;;;;;;;;;;;;;;;16.09;93.50;101439.81;5054673;28;1937;-72
2023/08/14 02:31:52;;;;;;;;;;;;;;;16.06;93.36;101442.75;5053077;28;1161;-73
2023/08/14 02:34:36;;;;;;;;;;;;;;;16.04;93.54;101439.44;5054118;28;1062;-72
2023/08/14 02:37:02;;;;;;;;;;;;;;;15.99;93.15;101431.19;5051837;28;1078;-72
2023/08/14 02:39:27;;;;;;;;;;;;;;;15.97;93.37;101427.91;5051917;28;1094;-74
2023/08/14 02:41:52;;;;;;;;;;;;;;;15.95;93.58;101440.31;5052235;28;1090;-72
2023/08/14 02:44:17;;;;;;;;;;;;;;;15.89;93.28;101432.09;5034256;28;1233;-72
2023/08/14 02:46:42;;;;;;;;;;;;;;;15.86;93.39;101426.31;5052687;28;1240;-73
2023/08/14 02:49:08;;;;;;;;;;;;;;;15.84;93.72;101433.50;5070432;28;2016;-72
2023/08/14 02:51:33;;;;;;;;;;;;;;;15.83;93.91;101431.84;5060198;28;1173;-72
2023/08/14 02:53:58;;;;;;;;;;;;;;;15.81;93.86;101423.31;5059361;28;1109;-72
2023/08/14 02:56:23;;;;;;;;;;;;;;;15.78;93.61;101424.44;5063826;28;1096;-73
2023/08/14 02:58:48;;;;;;;;;;;;;;;15.76;94.05;101425.53;5066747;28;1085;-73
2023/08/14 03:01:13;;;;;;;;;;;;;;;15.76;94.30;101426.34;5066738;28;1152;-72
2023/08/14 03:03:39;;;;;;;;;;;;;;;15.77;94.34;101422.78;5063344;28;1175;-72
2023/08/14 03:06:04;;;;;;;;;;;;;;;15.76;94.42;101421.09;5065448;28;1076;-72
2023/08/14 03:08:29;;;;;;;;;;;;;;;15.75;93.98;101424.69;5057903;28;2004;-73
2023/08/14 03:10:54;;;;;;;;;;;;;;;15.71;94.18;101423.34;5062365;28;1082;-73
2023/08/14 03:13:20;;;;;;;;;;;;;;;15.65;94.31;101429.13;5062231;28;1076;-72
2023/08/14 03:15:45;;;;;;;;;;;;;;;15.55;94.81;101425.72;5058478;28;1148;-72
2023/08/14 03:18:10;;;;;;;;;;;;;;;15.51;94.92;101421.75;5060449;28;994;-72
2023/08/14 03:20:35;;;;;;;;;;;;;;;15.49;94.91;101419.28;5039147;28;1156;-72
2023/08/14 03:23:00;;;;;;;;;;;;;;;15.48;94.90;101427.25;5056970;28;1150;-72
2023/08/14 03:25:26;;;;;;;;;;;;;;;15.45;95.00;101433.59;5056494;28;1135;-73
2023/08/14 03:27:51;;;;;;;;;;;;;;;15.44;95.49;101425.91;5054243;28;1086;-73
2023/08/14 03:30:16;;;;;;;;;;;;;;;15.45;95.41;101435.38;5056803;28;1891;-72
2023/08/14 03:32:41;;;;;;;;;;;;;;;15.47;95.56;101441.28;5054254;28;1099;-72
2023/08/14 03:35:06;;;;;;;;;;;;;;;15.44;95.67;101436.34;5053683;28;1098;-72
2023/08/14 03:37:32;;;;;;;;;;;;;;;15.38;95.40;101443.78;5054213;28;1096;-72
2023/08/14 03:39:57;;;;;;;;;;;;;;;15.33;95.40;101435.53;5054363;28;979;-72
2023/08/14 03:42:22;;;;;;;;;;;;;;;15.32;95.32;101438.31;5035950;28;1524;-73
2023/08/14 03:44:47;;;;;;;;;;;;;;;15.31;95.58;101440.09;5052459;28;1118;-72
2023/08/14 03:47:12;;;;;;;;;;;;;;;15.30;95.17;101445.44;5051860;28;1113;-72
2023/08/14 03:49:38;;;;;;;;;;;;;;;15.29;95.20;101434.16;5051145;28;1957;-72
2023/08/14 03:52:03;;;;;;;;;;;;;;;15.29;95.25;101433.34;5051104;28;1100;-72
2023/08/14 03:54:28;;;;;;;;;;;;;;;15.27;95.25;101430.06;5065771;28;1127;-72
2023/08/14 03:56:53;;;;;;;;;;;;;;;15.26;95.42;101437.09;5067998;28;1096;-71
2023/08/14 03:59:18;;;;;;;;;;;;;;;15.24;95.67;101436.38;5065341;28;1092;-72
2023/08/14 04:01:43;;;;;;;;;;;;;;;15.21;95.35;101436.69;5066163;28;1277;-72
2023/08/14 04:04:09;;;;;;;;;;;;;;;15.21;95.40;101441.91;5065795;28;1174;-72
2023/08/14 04:06:35;;;;;;;;;;;;;;;15.21;95.73;101436.69;5044178;28;1203;-72
2023/08/14 04:09:01;;;;;;;;;;;;;;;15.19;95.51;101438.59;5044085;28;1934;-72
2023/08/14 04:11:26;;;;;;;;;;;;;;;15.18;95.83;101431.72;5061238;28;1107;-73
2023/08/14 04:13:51;;;;;;;;;;;;;;;15.17;95.89;101435.28;5059513;28;1063;-72
2023/08/14 04:16:17;;;;;;;;;;;;;;;15.17;96.01;101430.06;5041707;28;1165;-74
2023/08/14 04:18:42;;;;;;;;;;;;;;;15.15;95.83;101426.78;5056438;28;1139;-72
2023/08/14 04:21:07;;;;;;;;;;;;;;;15.15;95.98;101421.56;5059023;28;1109;-72
2023/08/14 04:23:32;;;;;;;;;;;;;;;15.16;96.35;101417.97;5058611;28;1016;-73
2023/08/14 04:25:57;;;;;;;;;;;;;;;15.16;96.22;101425.81;5055934;28;1102;-74
2023/08/14 04:28:23;;;;;;;;;;;;;;;15.13;96.40;101419.06;5058113;28;1891;-72
2023/08/14 04:30:48;;;;;;;;;;;;;;;15.13;96.14;101418.25;5036361;28;1448;-72
2023/08/14 04:33:14;;;;;;;;;;;;;;;15.12;96.29;101411.38;5056187;28;1102;-72
2023/08/14 04:35:39;;;;;;;;;;;;;;;15.12;96.00;101411.38;5056859;28;1135;-72
2023/08/14 04:38:04;;;;;;;;;;;;;;;15.12;96.43;101412.19;5036151;28;1204;-72
2023/08/14 04:40:30;;;;;;;;;;;;;;;15.09;96.47;101411.66;5055898;28;1074;-72
2023/08/14 04:42:55;;;;;;;;;;;;;;;15.06;96.41;101406.72;5034803;28;1357;-73
2023/08/14 04:45:20;;;;;;;;;;;;;;;15.01;96.60;101408.91;5053517;28;1094;-73
2023/08/14 04:47:45;;;;;;;;;;;;;;;14.99;96.98;101405.63;5052130;28;1079;-72
2023/08/14 04:50:11;;;;;;;;;;;;;;;14.99;97.17;101410.84;5051663;28;1899;-72
2023/08/14 04:52:36;;;;;;;;;;;;;;;14.99;97.14;101408.25;5050999;28;1125;-72
2023/08/14 04:55:01;;;;;;;;;;;;;;;14.99;97.21;101408.25;5049176;28;1122;-72
2023/08/14 04:57:26;;;;;;;;;;;;;;;14.99;97.70;101408.25;5049068;28;1164;-74
2023/08/14 04:59:52;;;;;;;;;;;;;;;15.00;97.67;101407.28;5055750;28;1029;-73
2023/08/14 05:02:17;;;;;;;;;;;;;;;15.00;97.49;101397.63;5066219;28;1068;-74
2023/08/14 05:04:42;;;;;;;;;;;;;;;14.99;97.64;101401.22;5045703;28;1289;-74
2023/08/14 05:07:07;;;;;;;;;;;;;;;15.01;97.75;101393.25;5064726;28;1083;-72
2023/08/14 05:09:33;;;;;;;;;;;;;;;15.05;98.13;101394.63;5064125;28;1948;-71
2023/08/14 05:11:58;;;;;;;;;;;;;;;15.09;98.33;101391.59;5062279;28;1102;-72
2023/08/14 05:14:23;;;;;;;;;;;;;;;15.13;98.08;101384.28;5062884;28;1131;-73
2023/08/14 05:16:49;;;;;;;;;;;;;;;15.17;98.43;101387.44;5058278;28;1001;-74
2023/08/14 05:19:14;;;;;;;;;;;;;;;15.18;98.16;101389.91;5061684;28;1096;-72
2023/08/14 05:21:39;;;;;;;;;;;;;;;15.23;98.42;101381.66;5060074;28;1116;-72
2023/08/14 05:24:04;;;;;;;;;;;;;;;15.28;98.63;101382.88;5058667;28;1105;-72
2023/08/14 05:26:29;;;;;;;;;;;;;;;15.33;98.66;101372.00;5041300;28;1299;-72
2023/08/14 05:28:55;;;;;;;;;;;;;;;15.36;98.49;101367.28;5052069;28;1910;-72
2023/08/14 05:31:20;;;;;;;;;;;;;;;15.38;98.65;101370.59;5042045;28;1280;-73
2023/08/14 05:33:45;;;;;;;;;;;;;;;15.41;99.24;101378.13;5057782;28;1083;-72
2023/08/14 05:36:10;;;;;;;;;;;;;;;15.46;98.94;101371.66;5056207;28;1117;-73
2023/08/14 05:38:36;;;;;;;;;;;;;;;15.50;99.08;101373.03;5038947;28;1164;-72
2023/08/14 05:41:01;;;;;;;;;;;;;;;15.55;99.43;101381.28;5054665;28;1134;-72
2023/08/14 05:43:26;;;;;;;;;;;;;;;15.60;99.23;101384.28;5055927;28;979;-72
2023/08/14 05:45:51;;;;;;;;;;;;;;;15.64;99.46;101390.88;5040839;28;2211;-72
2023/08/14 05:48:16;;;;;;;;;;;;;;;15.67;99.34;101374.91;5050857;28;1969;-72
2023/08/14 05:50:42;;;;;;;;;;;;;;;15.71;99.51;101381.50;5053152;28;1122;-72
2023/08/14 05:53:08;;;;;;;;;;;;;;;15.74;99.45;101396.91;5050756;28;998;-73
2023/08/14 05:55:37;;;;;;;;;;;;;;;15.77;99.42;101399.25;5035270;28;1247;-72
2023/08/14 05:58:03;;;;;;;;;;;;;;;15.80;99.92;101390.28;5051501;28;1184;-72
2023/08/14 06:00:28;;;;;;;;;;;;;;;15.82;99.42;101394.38;5050988;28;1062;-72
2023/08/14 06:02:54;;;;;;;;;;;;;;;15.85;99.95;101394.09;5035020;28;1275;-72
2023/08/14 06:05:20;;;;;;;;;;;;;;;15.85;99.92;101399.34;5069810;28;1032;-73
2023/08/14 06:07:48;;;;;;;;;;;;;;;15.87;99.62;101405.22;5048195;28;1212;-72
2023/08/14 06:10:14;;;;;;;;;;;;;;;15.90;99.63;101407.56;5067305;28;1957;-73
2023/08/14 06:12:39;;;;;;;;;;;;;;;15.92;99.45;101404.78;5048009;28;1235;-72
2023/08/14 06:15:05;;;;;;;;;;;;;;;15.96;99.46;101410.56;5066000;28;1132;-73
2023/08/14 06:17:32;;;;;;;;;;;;;;;15.99;99.50;101415.50;5066044;28;1144;-72
2023/08/14 06:19:57;;;;;;;;;;;;;;;16.01;99.58;101418.81;5063650;28;1095;-73
2023/08/14 06:22:22;;;;;;;;;;;;;;;16.04;99.52;101428.97;5047538;28;1182;-73
2023/08/14 06:24:47;;;;;;;;;;;;;;;16.06;99.54;101421.81;5063161;28;1056;-72
2023/08/14 06:27:12;;;;;;;;;;;;;;;16.07;100.00;101431.31;5064375;28;1165;-73
2023/08/14 06:29:38;;;;;;;;;;;;;;;16.11;99.57;101440.50;5064967;28;1897;-72
2023/08/14 06:32:05;;;;;;;;;;;;;;;16.15;99.55;101431.38;5061242;28;1097;-75
2023/08/14 06:34:30;;;;;;;;;;;;;;;16.15;100.00;101436.63;5064038;28;1155;-72
2023/08/14 06:36:55;;;;;;;;;;;;;;;16.17;99.71;101432.06;5060040;28;1068;-73
2023/08/14 06:39:20;;;;;;;;;;;;;;;16.20;100.00;101421.31;5060158;28;1157;-72
2023/08/14 06:41:45;;;;;;;;;;;;;;;16.26;99.68;101412.88;5041901;28;1224;-72
2023/08/14 06:44:11;;;;;;;;;;;;;;;16.30;100.00;101411.59;5058042;28;1105;-73
2023/08/14 06:46:36;;;;;;;;;;;;;;;16.35;99.78;101413.78;5041150;28;1392;-74
2023/08/14 06:49:02;;;;;;;;;;;;;;;16.41;100.00;101415.81;5055337;28;1910;-73
2023/08/14 06:51:27;;;;;;;;;;;;;;;16.48;99.97;101416.03;5056076;28;1144;-72
2023/08/14 06:53:52;;;;;;;;;;;;;;;16.56;100.00;101408.25;5035925;28;1154;-72
2023/08/14 06:56:18;;;;;;;;;;;;;;;16.65;100.00;101402.13;5051756;28;1113;-73
2023/08/14 06:58:43;;;;;;;;;;;;;;;16.74;100.00;101403.84;5052357;28;1126;-73
2023/08/14 07:01:08;;;;;;;;;;;;;;;16.84;100.00;101396.72;5032098;28;1200;-73
2023/08/14 07:03:33;;;;;;;;;;;;;;;16.92;100.00;101396.81;5049361;28;995;-72
2023/08/14 07:05:58;;;;;;;;;;;;;;;17.01;100.00;101407.34;5048599;28;1085;-73
2023/08/14 07:08:24;;;;;;;;;;;;;;;17.08;100.00;101403.13;5030649;28;1950;-72
2023/08/14 07:10:49;;;;;;;;;;;;;;;17.16;100.00;101408.44;5066389;28;985;-73
2023/08/14 07:13:14;;;;;;;;;;;;;;;17.23;100.00;101402.41;5068062;28;1151;-74
2023/08/14 07:15:39;;;;;;;;;;;;;;;17.34;100.00;101396.09;5067219;28;1134;-72
2023/08/14 07:18:05;;;;;;;;;;;;;;;17.45;100.00;101401.06;5046869;28;1287;-73
2023/08/14 07:20:30;;;;;;;;;;;;;;;17.57;100.00;101398.19;5066142;28;1080;-72
2023/08/14 07:22:55;;;;;;;;;;;;;;;17.67;100.00;101409.38;5065117;28;1068;-73
2023/08/14 07:25:21;;;;;;;;;;;;;;;17.75;100.00;101406.81;5066440;28;1092;-75
2023/08/14 07:27:46;;;;;;;;;;;;;;;17.81;100.00;101395.69;5064314;28;1139;-73
2023/08/14 07:30:11;;;;;;;;;;;;;;;17.88;100.00;101406.34;5063345;28;1951;-75
2023/08/14 07:32:36;;;;;;;;;;;;;;;17.93;99.73;101404.91;5046524;28;1445;-72
2023/08/14 07:35:03;;;;;;;;;;;;;;;17.97;99.88;101401.00;5042591;28;1274;-72
2023/08/14 07:37:28;;;;;;;;;;;;;;;18.02;99.62;101396.09;5062546;28;1031;-72
2023/08/14 07:39:53;;;;;;;;;;;;;;;18.09;99.24;101398.06;5042631;28;1277;-72
2023/08/14 07:42:18;;;;;;;;;;;;;;;18.14;99.09;101401.03;5041363;28;1323;-73
2023/08/14 07:44:44;;;;;;;;;;;;;;;18.18;99.10;101412.84;5060592;28;1150;-73
2023/08/14 07:47:10;;;;;;;;;;;;;;;18.23;98.88;101405.31;5039352;28;1412;-72
2023/08/14 07:49:36;;;;;;;;;;;;;;;18.27;98.80;101411.88;5057920;28;1902;-74
2023/08/14 07:52:01;;;;;;;;;;;;;;;18.32;98.54;101414.84;5054975;28;1075;-73
2023/08/14 07:54:26;;;;;;;;;;;;;;;18.38;98.11;101408.94;5053454;28;1141;-74
2023/08/14 07:56:54;;;;;;;;;;;;;;;18.46;97.85;101422.09;5054480;28;1119;-73
2023/08/14 07:59:20;;;;;;;;;;;;;;;18.58;97.69;101420.81;5051089;28;1098;-73
2023/08/14 08:01:45;;;;;;;;;;;;;;;18.71;97.40;101424.78;5053356;28;1066;-73
2023/08/14 08:04:10;;;;;;;;;;;;;;;18.84;97.17;101435.63;5032441;28;1428;-72
2023/08/14 08:06:36;;;;;;;;;;;;;;;18.97;97.01;101422.81;5032910;28;1193;-72
2023/08/14 08:09:01;;;;;;;;;;;;;;;19.07;96.13;101423.44;5047393;28;1980;-73
2023/08/14 08:11:27;;;;;;;;;;;;;;;19.15;95.93;101421.78;5048159;28;1067;-73
2023/08/14 08:13:52;;;;;;;;;;;;;;;19.23;95.53;101414.72;5047391;28;1070;-74
2023/08/14 08:16:17;;;;;;;;;;;;;;;19.34;95.30;101410.94;5046940;28;1075;-74
2023/08/14 08:18:43;;;;;;;;;;;;;;;19.46;94.85;101414.03;5063668;28;1064;-72
2023/08/14 08:21:08;;;;;;;;;;;;;;;19.56;94.29;101420.72;5065862;28;1356;-72
2023/08/14 08:23:33;;;;;;;;;;;;;;;19.69;93.95;101411.50;5067164;28;1095;-73
2023/08/14 08:25:58;;;;;;;;;;;;;;;19.81;93.04;101408.31;5047281;28;1365;-73
2023/08/14 08:28:23;;;;;;;;;;;;;;;19.88;92.40;101405.81;5065750;28;1957;-72
2023/08/14 08:30:49;;;;;;;;;;;;;;;19.97;92.41;101401.34;5065178;28;1112;-72
2023/08/14 08:33:14;;;;;;;;;;;;;;;20.06;91.34;101392.41;5063612;28;995;-72
2023/08/14 08:35:39;;;;;;;;;;;;;;;20.16;91.46;101396.44;5046590;28;1250;-72
2023/08/14 08:38:04;;;;;;;;;;;;;;;20.30;91.15;101391.41;5060956;28;1146;-73
2023/08/14 08:40:30;;;;;;;;;;;;;;;20.42;90.53;101390.03;5062099;28;1082;-73
2023/08/14 08:42:56;;;;;;;;;;;;;;;20.55;89.82;101390.28;5043043;28;1210;-73
2023/08/14 08:45:22;;;;;;;;;;;;;;;20.64;89.73;101383.13;5057612;28;1093;-73
2023/08/14 08:47:48;;;;;;;;;;;;;;;20.74;88.90;101382.88;5058868;28;1092;-76
2023/08/14 08:50:13;;;;;;;;;;;;;;;20.84;88.65;101378.19;5055721;28;1894;-73
2023/08/14 08:52:39;;;;;;;;;;;;;;;20.85;87.78;101375.38;5057079;28;1141;-74
2023/08/14 08:55:05;;;;;;;;;;;;;;;20.96;87.95;101376.75;5053199;28;1083;-73
2023/08/14 08:57:30;;;;;;;;;;;;;;;21.04;85.56;101374.03;5033980;28;1231;-73
2023/08/14 08:59:57;;;;;;;;;;;;;;;21.13;86.19;101372.94;5054084;28;1123;-73
2023/08/14 09:02:23;;;;;;;;;;;;;;;21.24;85.39;101376.13;5052006;28;1185;-73
2023/08/14 09:04:48;;;;;;;;;;;;;;;21.30;83.86;101367.53;5052988;28;1054;-73
2023/08/14 09:07:14;;;;;;;;;;;;;;;21.37;84.53;101378.97;5050486;28;1005;-74
2023/08/14 09:09:39;;;;;;;;;;;;;;;21.47;84.91;101368.97;5049501;28;1894;-72
2023/08/14 09:12:04;;;;;;;;;;;;;;;21.55;81.78;101371.50;5050800;28;1180;-73
2023/08/14 09:14:29;;;;;;;;;;;;;;;21.58;82.96;101370.34;5032071;28;1388;-73
2023/08/14 09:16:55;;;;;;;;;;;;;;;21.65;82.35;101377.31;5049252;28;1161;-75
2023/08/14 09:19:20;;;;;;;;;;;;;;;21.78;80.34;101373.19;5048967;28;1109;-75
2023/08/14 09:21:45;;;;;;;;;;;;;;;21.85;78.03;101377.56;5048764;28;1052;-73
2023/08/14 09:24:12;;;;;;;;;;;;;;;21.93;80.87;101379.28;5066248;28;1096;-72
2023/08/14 09:26:37;;;;;;;;;;;;;;;22.00;79.12;101375.69;5067338;28;1064;-73
2023/08/14 09:29:02;;;;;;;;;;;;;;;22.16;80.55;101374.69;5066180;28;1901;-73
2023/08/14 09:31:30;;;;;;;;;;;;;;;22.26;79.95;101374.38;5052318;28;1426;-73
2023/08/14 09:33:55;;;;;;;;;;;;;;;22.33;78.52;101377.06;5050659;28;1644;-73
2023/08/14 09:36:21;;;;;;;;;;;;;;;22.39;79.37;101381.59;5067043;28;1082;-73
2023/08/14 09:38:49;;;;;;;;;;;;;;;22.52;79.24;101385.16;5067595;28;1158;-72
2023/08/14 09:41:14;;;;;;;;;;;;;;;22.59;77.30;101385.22;5063167;28;1402;-74
2023/08/14 09:43:40;;;;;;;;;;;;;;;22.64;76.88;101388.13;5065283;28;1091;-74
2023/08/14 09:46:05;;;;;;;;;;;;;;;22.68;75.33;101389.38;5062290;28;1108;-74
2023/08/14 09:48:46;;;;;;;;;;;;;;;22.79;76.10;101383.56;5044009;28;1995;-73
2023/08/14 09:51:12;;;;;;;;;;;;;;;22.93;75.41;101381.03;5041910;28;1197;-73
2023/08/14 09:53:42;;;;;;;;;;;;;;;22.98;73.87;101379.47;5060814;28;1280;-73
2023/08/14 09:56:08;;;;;;;;;;;;;;;23.05;73.51;101384.78;5058990;28;1067;-73
2023/08/14 09:58:33;;;;;;;;;;;;;;;23.03;71.54;101384.19;5040416;28;1584;-74
2023/08/14 10:00:59;;;;;;;;;;;;;;;23.06;71.88;101375.88;5059941;28;1084;-73
2023/08/14 10:03:24;;;;;;;;;;;;;;;23.08;71.71;101373.84;5056844;28;1082;-74
2023/08/14 10:05:49;;;;;;;;;;;;;;;23.11;72.92;101384.03;5039982;28;1185;-73
2023/08/14 10:08:15;;;;;;;;;;;;;;;23.19;72.66;101375.94;5055150;28;1898;-73
2023/08/14 10:10:40;;;;;;;;;;;;;;;23.30;69.65;101372.75;5056488;28;1172;-73
2023/08/14 10:13:08;;;;;;;;;;;;;;;23.44;69.76;101367.50;5057158;28;1260;-73
2023/08/14 10:15:46;;;;;;;;;;;;;;;23.54;69.03;101352.06;5054894;28;1165;-73
2023/08/14 10:18:11;;;;;;;;;;;;;;;23.59;70.61;101349.66;5052134;28;1092;-73
2023/08/14 10:20:37;;;;;;;;;;;;;;;23.66;69.37;101339.13;5035377;28;1319;-74
2023/08/14 10:23:02;;;;;;;;;;;;;;;23.74;68.87;101353.00;5053265;28;1067;-74
2023/08/14 10:25:27;;;;;;;;;;;;;;;23.83;68.17;101346.50;5034392;28;1335;-73
2023/08/14 10:27:53;;;;;;;;;;;;;;;23.98;68.48;101337.59;5051277;28;1082;-74
2023/08/14 10:30:22;;;;;;;;;;;;;;;23.98;65.81;101332.28;5052010;28;1944;-73
2023/08/14 10:32:48;;;;;;;;;;;;;;;24.02;66.04;101330.84;5069425;28;1099;-74
2023/08/14 10:35:13;;;;;;;;;;;;;;;24.05;64.63;101333.09;5068593;28;1208;-73
2023/08/14 10:37:41;;;;;;;;;;;;;;;24.06;64.91;101329.44;5067042;28;1111;-73
2023/08/14 10:40:18;;;;;;;;;;;;;;;24.11;65.15;101319.03;5064498;28;1099;-73
2023/08/14 10:42:44;;;;;;;;;;;;;;;24.21;64.67;101319.47;5055371;28;1152;-73
2023/08/14 10:45:10;;;;;;;;;;;;;;;24.26;63.94;101310.91;5064106;28;1115;-74
2023/08/14 10:47:37;;;;;;;;;;;;;;;24.37;64.43;101312.94;5062806;28;1157;-73
2023/08/14 10:50:12;;;;;;;;;;;;;;;24.34;62.82;101310.69;5063522;28;1965;-74
2023/08/14 10:52:37;;;;;;;;;;;;;;;24.34;62.76;101305.41;5061521;28;1841;-72
2023/08/14 10:55:02;;;;;;;;;;;;;;;24.40;62.34;101309.09;5061535;28;1166;-75
2023/08/14 10:57:28;;;;;;;;;;;;;;;24.53;62.14;101309.06;5058382;28;1118;-74
2023/08/14 10:59:57;;;;;;;;;;;;;;;24.63;60.20;101314.78;5052366;28;1046;-73
2023/08/14 11:02:24;;;;;;;;;;;;;;;24.67;60.62;101310.72;5057429;28;1403;-74
2023/08/14 11:05:22;;;;;;;;;;;;;;;24.72;60.25;101315.41;5059072;28;1071;-73
2023/08/14 11:07:57;;;;;;;;;;;;;;;24.78;60.30;101318.03;5016528;28;1338;-72
2023/08/14 11:10:26;;;;;;;;;;;;;;;24.88;60.02;101306.97;5057357;28;1890;-74
2023/08/14 11:12:52;;;;;;;;;;;;;;;24.93;60.13;101303.69;5039573;28;1325;-73
2023/08/14 11:15:18;;;;;;;;;;;;;;;25.02;60.43;101307.78;5056266;28;980;-73
2023/08/14 11:17:44;;;;;;;;;;;;;;;25.11;59.48;101310.00;5054390;28;1117;-74
2023/08/14 11:20:10;;;;;;;;;;;;;;;25.18;59.17;101317.97;5055460;28;1149;-73
2023/08/14 11:22:35;;;;;;;;;;;;;;;25.12;59.41;101318.81;5053611;28;1083;-73
2023/08/14 11:25:00;;;;;;;;;;;;;;;25.12;59.38;101319.63;5053946;28;1129;-73
2023/08/14 11:27:26;;;;;;;;;;;;;;;25.14;57.05;101316.75;5033426;28;1188;-73
2023/08/14 11:29:51;;;;;;;;;;;;;;;25.22;58.40;101316.50;5051181;28;1949;-73
2023/08/14 11:32:16;;;;;;;;;;;;;;;25.30;57.90;101310.97;5032704;28;1313;-73
2023/08/14 11:34:42;;;;;;;;;;;;;;;25.35;56.95;101319.13;5054453;28;1113;-73
2023/08/14 11:37:07;;;;;;;;;;;;;;;25.33;57.47;101321.16;5067102;28;1087;-73
2023/08/14 11:39:32;;;;;;;;;;;;;;;25.36;57.32;101311.97;5067624;28;1151;-73
2023/08/14 11:41:58;;;;;;;;;;;;;;;25.32;56.19;101308.91;5067136;28;1115;-74
2023/08/14 11:44:23;;;;;;;;;;;;;;;25.31;55.78;101317.91;5063981;28;1067;-74
2023/08/14 11:46:48;;;;;;;;;;;;;;;25.34;57.39;101306.84;5065293;28;1119;-73
2023/08/14 11:49:15;;;;;;;;;;;;;;;25.44;56.97;101306.41;5045073;28;1898;-73
2023/08/14 11:51:41;;;;;;;;;;;;;;;25.54;56.76;101300.66;5045057;28;1396;-74
2023/08/14 11:54:07;;;;;;;;;;;;;;;25.65;56.46;101298.13;5063333;28;1150;-73
2023/08/14 11:56:32;;;;;;;;;;;;;;;25.79;56.50;101301.53;5041255;28;1277;-74
2023/08/14 11:58:57;;;;;;;;;;;;;;;25.83;55.31;101305.41;5044154;28;1398;-73
2023/08/14 12:01:22;;;;;;;;;;;;;;;25.92;55.86;101301.47;5058381;28;1023;-74
2023/08/14 12:03:48;;;;;;;;;;;;;;;26.00;55.58;101299.56;5043217;28;1227;-74
2023/08/14 12:06:13;;;;;;;;;;;;;;;26.03;56.12;101299.13;5060714;28;1112;-74
2023/08/14 12:08:38;;;;;;;;;;;;;;;26.10;55.95;101305.25;5039829;28;1967;-73
2023/08/14 12:11:04;;;;;;;;;;;;;;;26.13;54.63;101304.78;5060645;28;1283;-73
2023/08/14 12:13:35;;;;;;;;;;;;;;;26.09;54.91;101306.25;5038762;28;1127;-73
2023/08/14 12:16:07;;;;;;;;;;;;;;;26.04;54.79;101300.78;5040233;28;1437;-72
2023/08/14 12:18:33;;;;;;;;;;;;;;;26.04;54.56;101306.91;5055161;28;1026;-75
2023/08/14 12:20:58;;;;;;;;;;;;;;;26.12;54.67;101306.63;5056018;28;1090;-72
2023/08/14 12:23:24;;;;;;;;;;;;;;;26.18;54.50;101299.63;5054994;28;1134;-73
2023/08/14 12:25:49;;;;;;;;;;;;;;;26.12;53.67;101292.53;5052862;28;1145;-72
2023/08/14 12:28:15;;;;;;;;;;;;;;;26.11;54.10;101281.09;5052783;28;1034;-72
2023/08/14 12:30:41;;;;;;;;;;;;;;;26.15;53.57;101282.28;5032542;28;1167;-74
2023/08/14 12:33:06;;;;;;;;;;;;;;;26.10;53.29;101278.66;5050431;28;1093;-73
2023/08/14 12:35:31;;;;;;;;;;;;;;;26.04;53.60;101296.28;5049627;28;1210;-73
2023/08/14 12:37:58;;;;;;;;;;;;;;;26.01;52.78;101288.72;5048370;28;1089;-72